createdAt,value
2018-06-03T00:00:41.057Z,29.50
2018-06-03T00:03:08.921Z,27.70
2018-06-03T00:05:36.873Z,28.37
2018-06-03T00:08:05.466Z,29.65
2018-06-03T00:10:33.419Z,30.55
2018-06-03T00:13:01.199Z,34.00
2018-06-03T00:15:29.158Z,29.23
2018-06-03T00:17:57.825Z,30.07
2018-06-03T00:20:37.617Z,28.20
2018-06-03T00:23:05.454Z,26.93
2018-06-03T00:25:33.317Z,26.27
2018-06-03T00:28:03.289Z,24.20
2018-06-03T00:30:30.880Z,26.90
2018-06-03T00:32:58.550Z,27.23
2018-06-03T00:35:26.894Z,25.50
2018-06-03T00:37:55.809Z,27.43
2018-06-03T00:40:23.794Z,30.20
2018-06-03T00:42:51.691Z,27.40
2018-06-03T00:45:20.966Z,31.30
2018-06-03T00:47:48.859Z,24.27
2018-06-03T00:50:16.790Z,27.83
2018-06-03T00:52:44.950Z,29.10
2018-06-03T00:55:12.831Z,26.73
2018-06-03T00:57:40.971Z,29.85
2018-06-03T01:00:08.972Z,25.63
2018-06-03T01:02:37.246Z,28.20
2018-06-03T01:05:07.263Z,32.20
2018-06-03T01:07:36.793Z,29.50
2018-06-03T01:10:04.623Z,29.37
2018-06-03T01:12:32.630Z,31.15
2018-06-03T01:15:00.385Z,28.33
2018-06-03T01:17:28.252Z,30.80
2018-06-03T01:19:56.821Z,35.20
2018-06-03T01:22:24.683Z,27.60
2018-06-03T01:24:52.672Z,29.27
2018-06-03T01:27:21.341Z,29.55
2018-06-03T01:29:49.126Z,31.55
2018-06-03T01:32:16.991Z,34.80
2018-06-03T01:34:44.886Z,30.15
2018-06-03T01:37:13.251Z,35.35
2018-06-03T01:39:41.002Z,26.00
2018-06-03T01:42:08.755Z,31.15
2018-06-03T01:44:37.461Z,27.80
2018-06-03T01:47:06.080Z,29.90
2018-06-03T01:49:33.979Z,31.70
2018-06-03T01:52:02.592Z,32.15
2018-06-03T01:54:31.175Z,36.50
2018-06-03T01:56:58.858Z,35.57
2018-06-03T01:59:27.657Z,39.80
2018-06-03T02:01:55.696Z,40.30
2018-06-03T02:04:23.537Z,37.33
2018-06-03T02:06:51.433Z,37.00
2018-06-03T02:09:20.611Z,40.00
2018-06-03T02:11:48.492Z,38.80
2018-06-03T02:14:16.299Z,56.00
2018-06-03T02:16:44.228Z,40.20
2018-06-03T02:19:12.855Z,43.50
2018-06-03T02:21:40.633Z,36.95
2018-06-03T02:24:08.385Z,38.50
2018-06-03T02:26:36.232Z,46.05
2018-06-03T02:29:04.005Z,41.93
2018-06-03T02:31:31.949Z,35.20
2018-06-03T02:33:59.517Z,41.50
2018-06-03T02:36:28.042Z,41.15
2018-06-03T02:38:55.961Z,36.00
2018-06-03T02:41:25.026Z,44.00
2018-06-03T02:43:52.862Z,35.70
2018-06-03T02:46:20.735Z,38.20
2018-06-03T02:48:48.503Z,30.30
2018-06-03T02:51:16.570Z,33.65
2018-06-03T02:53:44.326Z,43.35
2018-06-03T02:56:12.302Z,47.70
2018-06-03T02:58:40.022Z,41.30
2018-06-03T03:01:08.865Z,40.17
2018-06-03T03:03:36.674Z,37.90
2018-06-03T03:06:04.489Z,40.30
2018-06-03T03:08:32.267Z,43.45
2018-06-03T03:11:00.794Z,38.50
2018-06-03T03:13:28.699Z,40.40
2018-06-03T03:15:56.429Z,42.40
2018-06-03T03:18:25.032Z,40.50
2018-06-03T03:20:57.312Z,43.95
2018-06-03T03:23:25.181Z,44.25
2018-06-03T03:25:52.947Z,39.10
2018-06-03T03:28:20.775Z,46.77
2018-06-03T03:30:48.654Z,42.83
2018-06-03T03:33:17.267Z,41.00
2018-06-03T03:35:44.999Z,41.30
2018-06-03T03:38:12.803Z,48.90
2018-06-03T03:40:40.532Z,46.97
2018-06-03T03:43:08.306Z,44.00
2018-06-03T03:45:36.186Z,46.23
2018-06-03T03:48:03.942Z,45.40
2018-06-03T03:50:31.809Z,44.05
2018-06-03T03:52:59.653Z,48.00
2018-06-03T03:55:27.645Z,46.20
2018-06-03T03:57:55.417Z,48.63
2018-06-03T04:00:23.563Z,46.20
2018-06-03T04:02:51.345Z,46.30
2018-06-03T04:05:19.707Z,44.83
2018-06-03T04:07:47.607Z,46.53
2018-06-03T04:10:15.610Z,48.77
2018-06-03T04:12:44.142Z,46.63
2018-06-03T04:15:12.134Z,46.73
2018-06-03T04:17:39.982Z,39.13
2018-06-03T04:20:07.824Z,47.03
2018-06-03T04:22:35.609Z,43.17
2018-06-03T04:25:04.295Z,47.70
2018-06-03T04:27:32.313Z,42.70
2018-06-03T04:30:00.060Z,43.40
2018-06-03T04:35:02.249Z,38.50
2018-06-03T04:37:30.995Z,38.05
2018-06-03T04:42:32.960Z,37.83
2018-06-03T04:45:00.875Z,36.50
2018-06-03T04:47:28.908Z,34.47
2018-06-03T04:49:56.797Z,33.63
2018-06-03T04:52:24.607Z,31.90
2018-06-03T04:54:53.118Z,36.50
2018-06-03T04:57:21.028Z,35.67
2018-06-03T04:59:48.829Z,37.35
2018-06-03T05:02:16.763Z,27.23
2018-06-03T05:04:44.751Z,29.10
2018-06-03T05:07:12.502Z,30.05
2018-06-03T05:09:40.423Z,35.25
2018-06-03T05:12:08.533Z,27.87
2018-06-03T05:14:36.397Z,30.55
2018-06-03T05:17:04.435Z,28.25
2018-06-03T05:21:59.576Z,24.25
2018-06-03T06:01:22.329Z,20.10
2018-06-03T06:03:50.816Z,20.23
2018-06-03T06:06:18.706Z,22.03
2018-06-03T06:08:46.451Z,20.95
2018-06-03T06:11:14.264Z,17.37
2018-06-03T06:13:42.080Z,18.15
2018-06-03T06:16:09.839Z,17.35
2018-06-03T06:18:37.644Z,15.50
2018-06-03T06:21:06.344Z,14.93
2018-06-03T06:23:34.899Z,19.00
2018-06-03T06:26:03.865Z,16.73
2018-06-03T06:28:31.634Z,14.80
2018-06-03T07:42:35.443Z,22.25
2018-06-03T07:45:03.250Z,20.95
2018-06-03T07:47:30.973Z,28.13
2018-06-03T07:49:59.676Z,23.00
2018-06-03T07:52:28.153Z,23.10
2018-06-03T07:54:55.975Z,21.50
2018-06-03T07:57:23.767Z,25.90
2018-06-03T08:07:15.833Z,22.10
2018-06-03T08:09:46.747Z,22.00
2018-06-03T08:12:14.556Z,19.65
2018-06-03T08:14:43.605Z,22.10
2018-06-03T08:17:11.369Z,21.90
2018-06-03T08:29:31.002Z,22.60
2018-06-03T08:31:58.736Z,20.50
2018-06-03T08:39:22.205Z,21.40
2018-06-03T08:41:51.152Z,18.43
2018-06-03T08:44:19.228Z,18.80
2018-06-03T08:46:47.286Z,19.23
2018-06-03T08:49:15.748Z,16.95
2018-06-03T09:38:47.726Z,8.75
2018-06-03T10:47:12.010Z,6.40
2018-06-03T10:49:40.756Z,5.65
2018-06-03T10:52:10.422Z,7.10
2018-06-03T11:02:11.734Z,7.33
2018-06-03T11:09:41.541Z,6.10
2018-06-03T11:32:12.569Z,6.43
2018-06-03T11:34:49.183Z,5.43
2018-06-03T11:37:19.404Z,6.73
2018-06-03T11:39:49.506Z,7.10
2018-06-03T11:42:25.653Z,5.63
2018-06-03T11:44:54.586Z,6.57
2018-06-03T11:47:23.928Z,6.37
2018-06-03T12:12:02.268Z,5.50
2018-06-03T12:19:28.382Z,5.33
2018-06-03T12:22:00.317Z,6.20
2018-06-03T12:24:40.786Z,5.23
2018-06-03T12:27:10.719Z,5.60
2018-06-03T12:29:40.082Z,6.13
2018-06-03T12:32:08.913Z,5.37
2018-06-03T12:34:40.045Z,5.10
2018-06-03T12:37:09.403Z,4.90
2018-06-03T12:39:38.707Z,16.40
2018-06-03T12:49:31.902Z,4.03
2018-06-03T12:52:00.858Z,5.30
2018-06-03T12:54:33.935Z,4.50
2018-06-03T12:59:47.981Z,4.60
2018-06-03T13:02:17.099Z,5.03
2018-06-03T13:04:46.615Z,4.80
2018-06-03T13:07:16.076Z,5.07
2018-06-03T13:09:45.870Z,5.27
2018-06-03T13:12:14.265Z,3.87
2018-06-03T13:14:43.849Z,4.45
2018-06-03T13:19:40.914Z,4.65
2018-06-03T13:24:37.778Z,4.43
2018-06-03T13:27:06.736Z,3.93
2018-06-03T13:29:35.533Z,4.05
2018-06-03T13:32:04.590Z,4.23
2018-06-03T13:34:34.240Z,4.30
2018-06-03T13:37:03.470Z,4.23
2018-06-03T13:39:33.156Z,4.23
2018-06-03T13:42:02.425Z,5.17
2018-06-03T13:44:36.530Z,3.70
2018-06-03T13:47:06.235Z,6.20
2018-06-03T13:49:35.079Z,3.57
2018-06-03T13:52:04.118Z,4.13
2018-06-03T13:54:33.267Z,6.27
2018-06-03T13:57:02.224Z,3.07
2018-06-03T13:59:31.537Z,3.47
2018-06-03T14:02:00.928Z,3.97
2018-06-03T14:04:30.133Z,6.23
2018-06-03T14:06:59.187Z,5.27
2018-06-03T14:09:28.228Z,16.43
2018-06-03T14:11:57.719Z,6.23
2018-06-03T14:14:26.927Z,4.20
2018-06-03T14:16:56.015Z,3.77
2018-06-03T14:19:25.491Z,4.20
2018-06-03T14:22:02.520Z,3.27
2018-06-03T14:24:37.234Z,4.27
2018-06-03T14:27:08.189Z,5.80
2018-06-03T14:29:37.571Z,3.77
2018-06-03T14:32:06.894Z,4.80
2018-06-03T14:34:36.181Z,4.57
2018-06-03T14:37:04.768Z,2.60
2018-06-03T14:39:33.973Z,3.03
2018-06-03T14:42:03.177Z,6.90
2018-06-03T14:44:32.820Z,3.00
2018-06-03T14:47:02.211Z,4.00
2018-06-03T14:49:31.422Z,3.87
2018-06-03T14:52:00.520Z,3.53
2018-06-03T14:54:29.838Z,4.70
2018-06-03T14:59:26.564Z,3.50
2018-06-03T15:01:55.598Z,3.63
2018-06-03T15:04:24.586Z,3.47
2018-06-03T15:06:53.420Z,3.20
2018-06-03T15:09:21.632Z,3.87
2018-06-03T15:11:50.583Z,4.65
2018-06-03T15:14:19.741Z,4.17
2018-06-03T15:16:48.206Z,3.17
2018-06-03T15:19:17.581Z,4.53
2018-06-03T15:21:46.805Z,3.30
2018-06-03T15:24:16.376Z,3.47
2018-06-03T15:26:45.650Z,5.75
2018-06-03T15:29:14.424Z,3.40
2018-06-03T15:31:43.370Z,4.43
2018-06-03T15:34:12.315Z,4.45
2018-06-03T15:36:40.734Z,3.83
2018-06-03T15:39:09.917Z,5.77
2018-06-03T15:41:42.046Z,6.73
2018-06-03T15:44:12.804Z,4.27
2018-06-03T15:46:52.533Z,4.23
2018-06-03T15:49:21.981Z,3.10
2018-06-03T15:51:58.490Z,3.70
2018-06-03T15:54:27.490Z,4.47
2018-06-03T15:56:56.977Z,3.43
2018-06-03T15:59:26.330Z,3.23
2018-06-03T16:01:54.757Z,3.10
2018-06-03T16:04:23.591Z,3.80
2018-06-03T16:06:52.433Z,3.30
2018-06-03T16:09:21.298Z,4.73
2018-06-03T16:11:50.796Z,4.03
2018-06-03T16:14:25.444Z,6.90
2018-06-03T16:17:06.112Z,8.97
2018-06-03T16:19:36.345Z,4.53
2018-06-03T16:22:05.939Z,6.30
2018-06-03T16:24:37.699Z,13.97
2018-06-03T16:27:07.876Z,6.70
2018-06-03T16:29:37.179Z,10.70
2018-06-03T16:32:08.363Z,5.70
2018-06-03T16:34:37.822Z,9.63
2018-06-03T16:37:09.008Z,4.63
2018-06-03T16:39:43.769Z,5.40
2018-06-03T16:42:17.097Z,7.00
2018-06-03T16:44:46.342Z,4.20
2018-06-03T16:47:15.595Z,6.40
2018-06-03T16:49:44.613Z,4.60
2018-06-03T16:52:14.010Z,7.10
2018-06-03T16:54:42.594Z,4.40
2018-06-03T16:57:11.597Z,4.20
2018-06-03T16:59:43.205Z,7.10
2018-06-03T17:02:12.854Z,6.13
2018-06-03T17:04:46.698Z,4.77
2018-06-03T17:07:22.409Z,5.90
2018-06-03T17:09:52.754Z,7.57
2018-06-03T17:12:22.112Z,7.13
2018-06-03T17:14:51.275Z,5.97
2018-06-03T17:17:23.717Z,7.57
2018-06-03T17:19:52.800Z,6.03
2018-06-03T17:22:21.415Z,5.03
2018-06-03T17:25:01.033Z,8.13
2018-06-03T17:27:30.499Z,7.97
2018-06-03T17:29:59.511Z,7.57
2018-06-03T17:32:32.928Z,6.80
2018-06-03T17:35:03.500Z,5.80
2018-06-03T17:37:33.115Z,4.47
2018-06-03T17:40:02.734Z,5.90
2018-06-03T17:42:32.643Z,6.33
2018-06-03T17:45:06.143Z,6.03
2018-06-03T17:47:35.486Z,6.00
2018-06-03T17:50:04.521Z,6.27
2018-06-03T17:52:36.108Z,5.63
2018-06-03T17:55:08.419Z,5.83
2018-06-03T17:57:39.944Z,5.73
2018-06-03T18:00:25.076Z,8.10
2018-06-03T18:02:54.789Z,6.23
2018-06-03T18:05:25.171Z,6.50
2018-06-03T18:08:00.002Z,7.63
2018-06-03T18:10:30.356Z,10.63
2018-06-03T18:12:59.762Z,6.60
2018-06-03T18:15:34.574Z,7.70
2018-06-03T18:18:03.577Z,6.17
2018-06-03T18:20:32.980Z,6.60
2018-06-03T18:23:05.775Z,6.67
2018-06-03T18:25:36.385Z,6.90
2018-06-03T18:28:14.786Z,7.40
2018-06-03T18:30:44.792Z,7.53
2018-06-03T18:33:13.816Z,7.13
2018-06-03T18:35:43.368Z,8.73
2018-06-03T18:38:13.062Z,8.17
2018-06-03T18:40:43.760Z,9.00
2018-06-03T18:43:20.826Z,9.07
2018-06-03T18:45:58.797Z,10.00
2018-06-03T18:48:32.037Z,9.63
2018-06-03T18:51:04.901Z,9.57
2018-06-03T18:53:38.428Z,10.83
2018-06-03T18:56:07.885Z,8.10
2018-06-03T18:58:36.672Z,9.80
2018-06-03T19:01:08.622Z,10.03
2018-06-03T19:03:37.567Z,10.60
2018-06-03T19:06:08.744Z,10.03
2018-06-03T19:08:42.083Z,9.30
2018-06-03T19:11:11.924Z,9.90
2018-06-03T19:13:41.754Z,8.17
2018-06-03T19:16:29.868Z,9.93
2018-06-03T19:18:59.984Z,9.77
2018-06-03T19:21:29.174Z,10.87
2018-06-03T19:24:02.499Z,10.40
2018-06-03T19:26:31.513Z,10.97
2018-06-03T19:29:00.436Z,9.63
2018-06-03T19:31:29.746Z,11.60
2018-06-03T19:33:59.387Z,10.57
2018-06-03T19:36:30.618Z,10.47
2018-06-03T19:39:03.008Z,10.80
2018-06-03T19:41:35.875Z,15.93
2018-06-03T19:44:05.685Z,15.33
2018-06-03T19:46:36.956Z,13.33
2018-06-03T19:49:12.479Z,13.43
2018-06-03T19:51:41.665Z,10.23
2018-06-03T19:54:14.179Z,17.73
2018-06-03T19:56:49.349Z,11.83
2018-06-03T19:59:25.417Z,10.47
2018-06-03T20:01:59.858Z,11.90
2018-06-03T20:04:29.073Z,12.60
2018-06-03T20:06:58.053Z,8.73
2018-06-03T20:09:27.352Z,10.97
2018-06-03T20:11:56.860Z,15.17
2018-06-03T20:14:26.085Z,10.13
2018-06-03T20:16:55.335Z,10.20
2018-06-03T20:19:24.479Z,12.33
2018-06-03T20:21:53.373Z,12.10
2018-06-03T20:24:23.320Z,11.93
2018-06-03T20:26:52.779Z,10.47
2018-06-03T20:29:21.847Z,11.37
2018-06-03T20:31:53.884Z,13.13
2018-06-03T20:34:24.209Z,10.03
2018-06-03T20:36:56.483Z,11.70
2018-06-03T20:39:27.864Z,12.10
2018-06-03T20:41:58.319Z,11.07
2018-06-03T20:44:28.342Z,9.07
2018-06-03T20:47:00.718Z,11.23
2018-06-03T20:49:30.162Z,11.10
2018-06-03T20:51:59.672Z,10.00
2018-06-03T20:54:28.319Z,8.53
2018-06-03T20:56:57.968Z,11.17
2018-06-03T20:59:27.745Z,15.87
2018-06-03T21:01:58.204Z,9.03
2018-06-03T21:04:28.235Z,9.87
2018-06-03T21:06:59.376Z,11.70
2018-06-03T21:09:29.312Z,10.67
2018-06-03T21:11:58.647Z,10.47
2018-06-03T21:14:27.946Z,14.70
2018-06-03T21:16:57.737Z,10.47
2018-06-03T21:19:26.868Z,11.60
2018-06-03T21:21:55.782Z,11.73
2018-06-03T21:24:24.604Z,10.50
2018-06-03T21:26:53.463Z,11.17
2018-06-03T21:29:22.477Z,12.00
2018-06-03T21:31:51.326Z,12.07
2018-06-03T21:34:20.340Z,10.50
2018-06-03T21:36:49.088Z,9.57
2018-06-03T21:39:17.825Z,13.80
2018-06-03T21:41:48.829Z,13.47
2018-06-03T21:44:17.749Z,11.80
2018-06-03T21:46:46.092Z,9.47
2018-06-03T21:49:14.841Z,11.30
2018-06-03T21:51:43.745Z,12.80
2018-06-03T21:54:12.571Z,14.13
2018-06-03T21:56:41.377Z,11.13
2018-06-03T21:59:10.166Z,12.33
2018-06-03T22:01:38.988Z,11.87
2018-06-03T22:04:07.723Z,11.43
2018-06-03T22:06:36.530Z,11.47
2018-06-03T22:09:08.910Z,13.30
2018-06-03T22:11:39.802Z,11.00
2018-06-03T22:14:09.529Z,11.43
2018-06-03T22:16:39.307Z,11.60
2018-06-03T22:19:08.990Z,11.90
2018-06-03T22:21:38.069Z,26.60
2018-06-03T22:24:07.429Z,13.33
2018-06-03T22:26:39.609Z,12.33
2018-06-03T22:29:09.770Z,12.47
2018-06-03T22:31:42.717Z,15.27
2018-06-03T22:34:15.023Z,18.37
2018-06-03T22:36:44.234Z,15.10
2018-06-03T22:39:14.529Z,18.10
2018-06-03T22:41:43.641Z,15.80
2018-06-03T22:44:13.139Z,18.23
2018-06-03T22:46:43.523Z,14.20
2018-06-03T22:49:15.109Z,14.40
2018-06-03T22:51:46.223Z,15.47
2018-06-03T22:54:18.005Z,15.20
2018-06-03T22:58:00.113Z,17.53
2018-06-03T23:00:31.695Z,18.80
2018-06-03T23:03:08.791Z,19.97
2018-06-03T23:05:39.794Z,18.70
2018-06-03T23:08:09.263Z,21.47
2018-06-03T23:10:39.002Z,18.40
2018-06-03T23:13:08.607Z,19.30
2018-06-03T23:15:38.206Z,18.70
2018-06-03T23:18:07.616Z,22.87
2018-06-03T23:20:36.642Z,24.70
2018-06-03T23:23:06.304Z,21.70
2018-06-03T23:25:36.848Z,21.80
2018-06-03T23:28:05.112Z,22.03
2018-06-03T23:30:34.630Z,26.73
2018-06-03T23:33:10.188Z,26.40
2018-06-03T23:35:39.667Z,26.50
2018-06-03T23:38:10.594Z,25.70
2018-06-03T23:40:40.553Z,26.20
2018-06-03T23:43:14.365Z,28.47
2018-06-03T23:45:47.323Z,33.63
2018-06-03T23:48:24.032Z,35.00
2018-06-03T23:50:55.701Z,27.97
2018-06-03T23:53:29.503Z,31.20
2018-06-03T23:56:00.881Z,36.10
2018-06-03T23:58:34.119Z,33.10
